sensor_id;sensor_type;location;lat;lon;timestamp;temperature;humidity
14049;DHT22;7099;53.922;10.728;2023-02-08T00:03:15;-3.30;68.50
14049;DHT22;7099;53.922;10.728;2023-02-08T00:07:21;-3.30;68.70
14049;DHT22;7099;53.922;10.728;2023-02-08T00:11:26;-3.30;68.80
14049;DHT22;7099;53.922;10.728;2023-02-08T00:15:32;-3.30;69.10
14049;DHT22;7099;53.922;10.728;2023-02-08T00:19:37;-3.30;69.70
14049;DHT22;7099;53.922;10.728;2023-02-08T00:23:43;-3.30;69.60
14049;DHT22;7099;53.922;10.728;2023-02-08T00:27:50;-3.30;69.60
14049;DHT22;7099;53.922;10.728;2023-02-08T00:31:56;-3.30;70.00
14049;DHT22;7099;53.922;10.728;2023-02-08T00:36:04;-3.40;69.30
14049;DHT22;7099;53.922;10.728;2023-02-08T00:40:10;-3.30;69.40
14049;DHT22;7099;53.922;10.728;2023-02-08T00:44:16;-3.30;69.30
14049;DHT22;7099;53.922;10.728;2023-02-08T00:48:22;-3.40;69.50
14049;DHT22;7099;53.922;10.728;2023-02-08T00:52:29;-3.40;69.30
14049;DHT22;7099;53.922;10.728;2023-02-08T00:56:34;-3.40;69.20
14049;DHT22;7099;53.922;10.728;2023-02-08T01:00:40;-3.40;69.10
14049;DHT22;7099;53.922;10.728;2023-02-08T01:04:46;-3.40;69.20
14049;DHT22;7099;53.922;10.728;2023-02-08T01:08:51;-3.40;69.20
14049;DHT22;7099;53.922;10.728;2023-02-08T01:12:57;-3.40;69.20
14049;DHT22;7099;53.922;10.728;2023-02-08T01:17:02;-3.50;69.40
14049;DHT22;7099;53.922;10.728;2023-02-08T01:21:11;-3.50;69.60
14049;DHT22;7099;53.922;10.728;2023-02-08T01:25:18;-3.50;70.20
14049;DHT22;7099;53.922;10.728;2023-02-08T01:29:24;-3.50;70.20
14049;DHT22;7099;53.922;10.728;2023-02-08T01:33:30;-3.50;70.00
14049;DHT22;7099;53.922;10.728;2023-02-08T01:37:35;-3.50;69.70
14049;DHT22;7099;53.922;10.728;2023-02-08T01:41:43;-3.50;69.60
14049;DHT22;7099;53.922;10.728;2023-02-08T01:45:51;-3.60;70.10
14049;DHT22;7099;53.922;10.728;2023-02-08T01:49:56;-3.60;69.90
14049;DHT22;7099;53.922;10.728;2023-02-08T01:54:04;-3.60;69.20
14049;DHT22;7099;53.922;10.728;2023-02-08T01:58:12;-3.60;69.00
14049;DHT22;7099;53.922;10.728;2023-02-08T02:02:20;-3.60;69.00
14049;DHT22;7099;53.922;10.728;2023-02-08T02:06:36;-3.70;69.20
14049;DHT22;7099;53.922;10.728;2023-02-08T02:10:47;-3.70;69.20
14049;DHT22;7099;53.922;10.728;2023-02-08T02:14:53;-3.70;69.00
14049;DHT22;7099;53.922;10.728;2023-02-08T02:18:59;-3.70;68.70
14049;DHT22;7099;53.922;10.728;2023-02-08T02:46:30;-3.90;69.30
14049;DHT22;7099;53.922;10.728;2023-02-08T02:50:52;-3.90;69.10
14049;DHT22;7099;53.922;10.728;2023-02-08T02:55:13;-3.90;68.80
14049;DHT22;7099;53.922;10.728;2023-02-08T02:59:21;-3.90;68.80
14049;DHT22;7099;53.922;10.728;2023-02-08T03:03:30;-4.00;68.90
14049;DHT22;7099;53.922;10.728;2023-02-08T03:17:32;-4.00;69.00
14049;DHT22;7099;53.922;10.728;2023-02-08T03:21:33;-4.00;68.80
14049;DHT22;7099;53.922;10.728;2023-02-08T03:25:51;-4.00;68.80
14049;DHT22;7099;53.922;10.728;2023-02-08T03:30:14;-4.00;68.70
14049;DHT22;7099;53.922;10.728;2023-02-08T03:34:33;-4.10;68.40
14049;DHT22;7099;53.922;10.728;2023-02-08T03:38:47;-4.10;68.30
14049;DHT22;7099;53.922;10.728;2023-02-08T03:42:58;-4.10;68.20
14049;DHT22;7099;53.922;10.728;2023-02-08T03:47:17;-4.20;68.20
14049;DHT22;7099;53.922;10.728;2023-02-08T03:51:25;-4.10;68.20
14049;DHT22;7099;53.922;10.728;2023-02-08T03:55:34;-4.20;68.00
14049;DHT22;7099;53.922;10.728;2023-02-08T03:59:43;-4.20;68.00
14049;DHT22;7099;53.922;10.728;2023-02-08T04:03:53;-4.30;67.90
14049;DHT22;7099;53.922;10.728;2023-02-08T04:07:59;-4.30;67.90
14049;DHT22;7099;53.922;10.728;2023-02-08T04:12:05;-4.30;67.80
14049;DHT22;7099;53.922;10.728;2023-02-08T04:16:11;-4.30;67.90
14049;DHT22;7099;53.922;10.728;2023-02-08T04:20:17;-4.40;68.10
14049;DHT22;7099;53.922;10.728;2023-02-08T04:24:23;-4.40;68.20
14049;DHT22;7099;53.922;10.728;2023-02-08T04:28:28;-4.40;68.20
14049;DHT22;7099;53.922;10.728;2023-02-08T04:32:34;-4.40;68.00
14049;DHT22;7099;53.922;10.728;2023-02-08T04:36:39;-4.40;67.90
14049;DHT22;7099;53.922;10.728;2023-02-08T04:40:45;-4.50;68.00
14049;DHT22;7099;53.922;10.728;2023-02-08T04:44:50;-4.50;68.10
14049;DHT22;7099;53.922;10.728;2023-02-08T04:48:56;-4.50;68.20
14049;DHT22;7099;53.922;10.728;2023-02-08T04:53:03;-4.50;68.30
14049;DHT22;7099;53.922;10.728;2023-02-08T04:57:13;-4.50;68.70
14049;DHT22;7099;53.922;10.728;2023-02-08T05:01:19;-4.60;69.00
14049;DHT22;7099;53.922;10.728;2023-02-08T05:05:25;-4.50;69.10
14049;DHT22;7099;53.922;10.728;2023-02-08T05:09:31;-4.50;68.80
14049;DHT22;7099;53.922;10.728;2023-02-08T05:13:37;-4.50;68.60
14049;DHT22;7099;53.922;10.728;2023-02-08T05:17:43;-4.50;68.50
14049;DHT22;7099;53.922;10.728;2023-02-08T05:21:48;-4.50;68.50
14049;DHT22;7099;53.922;10.728;2023-02-08T05:25:54;-4.50;68.40
14049;DHT22;7099;53.922;10.728;2023-02-08T05:30:00;-4.50;68.50
14049;DHT22;7099;53.922;10.728;2023-02-08T05:34:06;-4.50;69.10
14049;DHT22;7099;53.922;10.728;2023-02-08T05:38:12;-4.50;69.30
14049;DHT22;7099;53.922;10.728;2023-02-08T05:42:17;-4.50;69.40
14049;DHT22;7099;53.922;10.728;2023-02-08T05:46:23;-4.50;69.20
14049;DHT22;7099;53.922;10.728;2023-02-08T05:50:28;-4.50;69.50
14049;DHT22;7099;53.922;10.728;2023-02-08T05:54:35;-4.60;69.70
14049;DHT22;7099;53.922;10.728;2023-02-08T05:58:41;-4.60;69.20
14049;DHT22;7099;53.922;10.728;2023-02-08T06:02:46;-4.60;68.80
14049;DHT22;7099;53.922;10.728;2023-02-08T06:06:56;-4.60;68.40
14049;DHT22;7099;53.922;10.728;2023-02-08T06:11:01;-4.60;68.30
14049;DHT22;7099;53.922;10.728;2023-02-08T06:15:07;-4.70;68.30
14049;DHT22;7099;53.922;10.728;2023-02-08T06:19:13;-4.70;68.90
14049;DHT22;7099;53.922;10.728;2023-02-08T06:23:20;-4.70;69.00
14049;DHT22;7099;53.922;10.728;2023-02-08T06:27:26;-4.60;68.80
14049;DHT22;7099;53.922;10.728;2023-02-08T06:31:32;-4.60;68.50
14049;DHT22;7099;53.922;10.728;2023-02-08T06:35:37;-4.70;68.10
14049;DHT22;7099;53.922;10.728;2023-02-08T06:39:43;-4.70;68.10
14049;DHT22;7099;53.922;10.728;2023-02-08T06:43:49;-4.70;68.20
14049;DHT22;7099;53.922;10.728;2023-02-08T06:47:54;-4.70;68.40
14049;DHT22;7099;53.922;10.728;2023-02-08T06:52:00;-4.70;68.30
14049;DHT22;7099;53.922;10.728;2023-02-08T06:56:05;-4.70;68.20
14049;DHT22;7099;53.922;10.728;2023-02-08T07:00:12;-4.70;68.40
14049;DHT22;7099;53.922;10.728;2023-02-08T07:04:21;-4.70;68.40
14049;DHT22;7099;53.922;10.728;2023-02-08T07:08:26;-4.70;68.60
14049;DHT22;7099;53.922;10.728;2023-02-08T07:12:33;-4.70;68.50
14049;DHT22;7099;53.922;10.728;2023-02-08T07:16:40;-4.70;68.50
14049;DHT22;7099;53.922;10.728;2023-02-08T07:20:47;-4.70;68.50
14049;DHT22;7099;53.922;10.728;2023-02-08T07:24:53;-4.70;68.70
14049;DHT22;7099;53.922;10.728;2023-02-08T07:28:59;-4.70;69.30
14049;DHT22;7099;53.922;10.728;2023-02-08T07:33:05;-4.60;69.00
14049;DHT22;7099;53.922;10.728;2023-02-08T07:37:11;-4.60;69.00
14049;DHT22;7099;53.922;10.728;2023-02-08T07:41:18;-4.60;69.80
14049;DHT22;7099;53.922;10.728;2023-02-08T07:45:24;-4.50;70.10
14049;DHT22;7099;53.922;10.728;2023-02-08T07:49:31;-4.50;69.60
14049;DHT22;7099;53.922;10.728;2023-02-08T07:53:38;-4.40;69.50
14049;DHT22;7099;53.922;10.728;2023-02-08T07:57:44;-4.40;69.60
14049;DHT22;7099;53.922;10.728;2023-02-08T08:01:50;-4.40;69.60
14049;DHT22;7099;53.922;10.728;2023-02-08T08:05:56;-4.30;70.00
14049;DHT22;7099;53.922;10.728;2023-02-08T08:10:02;-4.30;69.90
14049;DHT22;7099;53.922;10.728;2023-02-08T08:14:08;-4.20;70.50
14049;DHT22;7099;53.922;10.728;2023-02-08T08:18:13;-4.10;70.60
14049;DHT22;7099;53.922;10.728;2023-02-08T08:22:19;-4.00;71.00
14049;DHT22;7099;53.922;10.728;2023-02-08T08:26:27;-3.90;70.80
14049;DHT22;7099;53.922;10.728;2023-02-08T08:30:34;-3.90;71.10
14049;DHT22;7099;53.922;10.728;2023-02-08T08:34:39;-3.80;71.30
14049;DHT22;7099;53.922;10.728;2023-02-08T08:38:45;-3.70;71.80
14049;DHT22;7099;53.922;10.728;2023-02-08T08:42:51;-3.60;71.90
14049;DHT22;7099;53.922;10.728;2023-02-08T08:46:58;-3.50;72.10
14049;DHT22;7099;53.922;10.728;2023-02-08T08:51:05;-3.40;71.90
14049;DHT22;7099;53.922;10.728;2023-02-08T08:55:11;-3.40;72.00
14049;DHT22;7099;53.922;10.728;2023-02-08T08:59:18;-3.30;72.20
14049;DHT22;7099;53.922;10.728;2023-02-08T09:03:25;-3.10;72.30
14049;DHT22;7099;53.922;10.728;2023-02-08T09:07:32;-3.00;72.40
14049;DHT22;7099;53.922;10.728;2023-02-08T09:11:38;-2.90;72.00
14049;DHT22;7099;53.922;10.728;2023-02-08T09:15:44;-2.80;72.50
14049;DHT22;7099;53.922;10.728;2023-02-08T09:19:50;-2.60;72.30
14049;DHT22;7099;53.922;10.728;2023-02-08T09:23:56;-2.50;72.00
14049;DHT22;7099;53.922;10.728;2023-02-08T09:28:02;-2.30;71.90
14049;DHT22;7099;53.922;10.728;2023-02-08T09:32:08;-2.10;71.70
14049;DHT22;7099;53.922;10.728;2023-02-08T09:36:15;-2.00;71.20
14049;DHT22;7099;53.922;10.728;2023-02-08T09:40:24;-1.80;70.70
14049;DHT22;7099;53.922;10.728;2023-02-08T09:48:45;-1.40;70.40
14049;DHT22;7099;53.922;10.728;2023-02-08T09:57:13;-1.10;69.00
14049;DHT22;7099;53.922;10.728;2023-02-08T10:01:25;-1.00;68.50
14049;DHT22;7099;53.922;10.728;2023-02-08T10:05:32;-0.80;67.60
14049;DHT22;7099;53.922;10.728;2023-02-08T10:09:39;-0.60;67.90
14049;DHT22;7099;53.922;10.728;2023-02-08T10:23:19;-0.10;64.00
14049;DHT22;7099;53.922;10.728;2023-02-08T10:27:49;0.10;64.20
14049;DHT22;7099;53.922;10.728;2023-02-08T10:32:12;0.30;65.20
14049;DHT22;7099;53.922;10.728;2023-02-08T10:36:27;0.40;62.30
14049;DHT22;7099;53.922;10.728;2023-02-08T10:40:38;0.60;62.00
14049;DHT22;7099;53.922;10.728;2023-02-08T10:45:03;0.70;61.80
14049;DHT22;7099;53.922;10.728;2023-02-08T10:49:52;0.90;59.20
14049;DHT22;7099;53.922;10.728;2023-02-08T10:54:02;1.10;59.20
14049;DHT22;7099;53.922;10.728;2023-02-08T10:58:13;1.30;60.30
14049;DHT22;7099;53.922;10.728;2023-02-08T11:02:24;1.40;59.70
14049;DHT22;7099;53.922;10.728;2023-02-08T11:06:31;1.60;59.60
14049;DHT22;7099;53.922;10.728;2023-02-08T11:10:38;1.80;59.40
14049;DHT22;7099;53.922;10.728;2023-02-08T11:14:49;1.90;59.00
14049;DHT22;7099;53.922;10.728;2023-02-08T11:18:58;2.10;56.40
14049;DHT22;7099;53.922;10.728;2023-02-08T11:27:41;2.40;54.50
14049;DHT22;7099;53.922;10.728;2023-02-08T11:36:21;2.70;53.10
14049;DHT22;7099;53.922;10.728;2023-02-08T11:40:42;2.80;55.30
14049;DHT22;7099;53.922;10.728;2023-02-08T11:44:49;2.90;53.10
14049;DHT22;7099;53.922;10.728;2023-02-08T11:48:55;3.00;54.40
14049;DHT22;7099;53.922;10.728;2023-02-08T11:53:09;3.20;55.10
14049;DHT22;7099;53.922;10.728;2023-02-08T11:57:27;3.20;54.50
14049;DHT22;7099;53.922;10.728;2023-02-08T12:01:38;3.30;53.10
14049;DHT22;7099;53.922;10.728;2023-02-08T12:06:03;3.40;52.20
14049;DHT22;7099;53.922;10.728;2023-02-08T12:10:33;3.50;51.80
14049;DHT22;7099;53.922;10.728;2023-02-08T12:24:13;3.60;51.60
14049;DHT22;7099;53.922;10.728;2023-02-08T12:37:33;3.90;52.90
14049;DHT22;7099;53.922;10.728;2023-02-08T12:55:57;4.30;53.10
14049;DHT22;7099;53.922;10.728;2023-02-08T13:04:18;4.40;52.10
14049;DHT22;7099;53.922;10.728;2023-02-08T13:08:44;4.50;51.70
14049;DHT22;7099;53.922;10.728;2023-02-08T13:13:19;4.50;52.40
14049;DHT22;7099;53.922;10.728;2023-02-08T13:17:43;4.70;50.80
14049;DHT22;7099;53.922;10.728;2023-02-08T13:21:52;4.70;51.80
14049;DHT22;7099;53.922;10.728;2023-02-08T13:26:05;4.80;51.80
14049;DHT22;7099;53.922;10.728;2023-02-08T13:30:19;4.90;51.90
14049;DHT22;7099;53.922;10.728;2023-02-08T13:34:45;5.00;51.10
14049;DHT22;7099;53.922;10.728;2023-02-08T13:38:55;5.10;48.90
14049;DHT22;7099;53.922;10.728;2023-02-08T13:47:46;5.20;48.70
14049;DHT22;7099;53.922;10.728;2023-02-08T13:51:53;5.20;50.50
14049;DHT22;7099;53.922;10.728;2023-02-08T13:55:59;5.30;50.50
14049;DHT22;7099;53.922;10.728;2023-02-08T14:00:25;5.40;51.20
14049;DHT22;7099;53.922;10.728;2023-02-08T14:04:35;5.50;49.70
14049;DHT22;7099;53.922;10.728;2023-02-08T14:13:27;5.80;51.40
14049;DHT22;7099;53.922;10.728;2023-02-08T14:17:35;5.80;49.10
14049;DHT22;7099;53.922;10.728;2023-02-08T14:22:04;5.80;50.40
14049;DHT22;7099;53.922;10.728;2023-02-08T14:26:20;5.90;49.40
14049;DHT22;7099;53.922;10.728;2023-02-08T14:30:31;6.00;50.40
14049;DHT22;7099;53.922;10.728;2023-02-08T14:34:39;6.00;49.60
14049;DHT22;7099;53.922;10.728;2023-02-08T14:38:51;6.00;50.30
14049;DHT22;7099;53.922;10.728;2023-02-08T14:43:39;6.00;49.00
14049;DHT22;7099;53.922;10.728;2023-02-08T14:52:08;6.10;51.10
14049;DHT22;7099;53.922;10.728;2023-02-08T14:56:26;6.20;50.50
14049;DHT22;7099;53.922;10.728;2023-02-08T15:00:37;6.10;50.90
14049;DHT22;7099;53.922;10.728;2023-02-08T15:04:44;6.00;50.70
14049;DHT22;7099;53.922;10.728;2023-02-08T15:08:51;5.90;50.30
14049;DHT22;7099;53.922;10.728;2023-02-08T15:13:03;5.90;51.50
14049;DHT22;7099;53.922;10.728;2023-02-08T15:21:45;5.80;51.20
14049;DHT22;7099;53.922;10.728;2023-02-08T15:30:03;5.50;51.50
14049;DHT22;7099;53.922;10.728;2023-02-08T15:34:09;5.40;52.00
14049;DHT22;7099;53.922;10.728;2023-02-08T15:38:20;5.30;51.50
14049;DHT22;7099;53.922;10.728;2023-02-08T15:42:31;5.10;51.40
14049;DHT22;7099;53.922;10.728;2023-02-08T15:46:38;5.00;51.80
14049;DHT22;7099;53.922;10.728;2023-02-08T15:50:46;4.90;52.20
14049;DHT22;7099;53.922;10.728;2023-02-08T15:54:51;4.80;52.30
14049;DHT22;7099;53.922;10.728;2023-02-08T15:58:59;4.60;52.40
14049;DHT22;7099;53.922;10.728;2023-02-08T16:03:14;4.50;52.50
14049;DHT22;7099;53.922;10.728;2023-02-08T16:07:43;4.40;52.90
14049;DHT22;7099;53.922;10.728;2023-02-08T16:11:50;4.30;52.70
14049;DHT22;7099;53.922;10.728;2023-02-08T16:20:34;4.10;53.20
14049;DHT22;7099;53.922;10.728;2023-02-08T16:24:40;4.00;54.20
14049;DHT22;7099;53.922;10.728;2023-02-08T16:33:12;3.70;54.10
14049;DHT22;7099;53.922;10.728;2023-02-08T16:37:31;3.60;53.90
14049;DHT22;7099;53.922;10.728;2023-02-08T16:46:20;3.40;54.60
14049;DHT22;7099;53.922;10.728;2023-02-08T16:50:29;3.20;54.90
14049;DHT22;7099;53.922;10.728;2023-02-08T16:54:35;3.10;55.40
14049;DHT22;7099;53.922;10.728;2023-02-08T16:58:40;3.00;55.60
14049;DHT22;7099;53.922;10.728;2023-02-08T17:02:49;2.90;55.70
14049;DHT22;7099;53.922;10.728;2023-02-08T17:06:55;2.90;56.00
14049;DHT22;7099;53.922;10.728;2023-02-08T17:11:01;2.80;56.20
14049;DHT22;7099;53.922;10.728;2023-02-08T17:15:07;2.70;56.30
14049;DHT22;7099;53.922;10.728;2023-02-08T17:19:16;2.60;56.50
14049;DHT22;7099;53.922;10.728;2023-02-08T17:23:22;2.70;55.80
14049;DHT22;7099;53.922;10.728;2023-02-08T17:27:28;2.50;56.20
14049;DHT22;7099;53.922;10.728;2023-02-08T17:31:33;2.40;56.70
14049;DHT22;7099;53.922;10.728;2023-02-08T17:35:39;2.30;57.00
14049;DHT22;7099;53.922;10.728;2023-02-08T17:39:44;2.20;57.10
14049;DHT22;7099;53.922;10.728;2023-02-08T17:43:52;2.10;57.20
14049;DHT22;7099;53.922;10.728;2023-02-08T17:47:59;2.00;57.40
14049;DHT22;7099;53.922;10.728;2023-02-08T17:52:05;1.90;57.60
14049;DHT22;7099;53.922;10.728;2023-02-08T17:56:19;1.80;57.80
14049;DHT22;7099;53.922;10.728;2023-02-08T18:00:25;1.70;58.00
14049;DHT22;7099;53.922;10.728;2023-02-08T18:04:31;1.60;58.20
14049;DHT22;7099;53.922;10.728;2023-02-08T18:08:38;1.50;58.60
14049;DHT22;7099;53.922;10.728;2023-02-08T18:12:44;1.50;59.30
14049;DHT22;7099;53.922;10.728;2023-02-08T18:16:49;1.40;59.00
14049;DHT22;7099;53.922;10.728;2023-02-08T18:20:55;1.30;59.40
14049;DHT22;7099;53.922;10.728;2023-02-08T18:25:00;1.20;59.40
14049;DHT22;7099;53.922;10.728;2023-02-08T18:29:08;1.20;59.70
14049;DHT22;7099;53.922;10.728;2023-02-08T18:33:15;1.10;59.80
14049;DHT22;7099;53.922;10.728;2023-02-08T18:37:20;1.10;60.00
14049;DHT22;7099;53.922;10.728;2023-02-08T18:41:28;1.00;60.10
14049;DHT22;7099;53.922;10.728;2023-02-08T18:45:34;1.00;60.20
14049;DHT22;7099;53.922;10.728;2023-02-08T18:49:40;1.00;60.30
14049;DHT22;7099;53.922;10.728;2023-02-08T18:53:47;0.90;60.40
14049;DHT22;7099;53.922;10.728;2023-02-08T18:57:55;0.90;60.40
14049;DHT22;7099;53.922;10.728;2023-02-08T19:02:00;0.80;60.50
14049;DHT22;7099;53.922;10.728;2023-02-08T19:06:17;0.80;60.40
14049;DHT22;7099;53.922;10.728;2023-02-08T19:10:28;0.80;60.60
14049;DHT22;7099;53.922;10.728;2023-02-08T19:14:34;0.80;60.50
14049;DHT22;7099;53.922;10.728;2023-02-08T19:18:40;0.70;60.60
14049;DHT22;7099;53.922;10.728;2023-02-08T19:22:46;0.70;60.50
14049;DHT22;7099;53.922;10.728;2023-02-08T19:26:51;0.70;60.60
14049;DHT22;7099;53.922;10.728;2023-02-08T19:31:07;0.60;60.70
14049;DHT22;7099;53.922;10.728;2023-02-08T19:35:20;0.60;61.20
14049;DHT22;7099;53.922;10.728;2023-02-08T19:39:26;0.50;61.10
14049;DHT22;7099;53.922;10.728;2023-02-08T19:43:32;0.50;61.20
14049;DHT22;7099;53.922;10.728;2023-02-08T19:47:40;0.50;61.50
14049;DHT22;7099;53.922;10.728;2023-02-08T19:51:56;0.40;61.50
14049;DHT22;7099;53.922;10.728;2023-02-08T19:56:07;0.40;61.60
14049;DHT22;7099;53.922;10.728;2023-02-08T20:00:14;0.40;61.90
14049;DHT22;7099;53.922;10.728;2023-02-08T20:04:27;0.30;61.80
14049;DHT22;7099;53.922;10.728;2023-02-08T20:08:33;0.30;61.90
14049;DHT22;7099;53.922;10.728;2023-02-08T20:12:38;0.30;62.10
14049;DHT22;7099;53.922;10.728;2023-02-08T20:16:44;0.20;62.80
14049;DHT22;7099;53.922;10.728;2023-02-08T20:21:02;0.20;62.10
14049;DHT22;7099;53.922;10.728;2023-02-08T20:25:08;0.20;62.30
14049;DHT22;7099;53.922;10.728;2023-02-08T20:29:14;0.20;62.10
14049;DHT22;7099;53.922;10.728;2023-02-08T20:33:20;0.20;62.60
14049;DHT22;7099;53.922;10.728;2023-02-08T20:37:26;0.20;62.20
14049;DHT22;7099;53.922;10.728;2023-02-08T20:41:32;0.10;62.00
14049;DHT22;7099;53.922;10.728;2023-02-08T20:45:40;0.10;62.00
14049;DHT22;7099;53.922;10.728;2023-02-08T20:49:50;0.10;62.20
14049;DHT22;7099;53.922;10.728;2023-02-08T20:53:57;0.00;62.40
14049;DHT22;7099;53.922;10.728;2023-02-08T20:58:03;0.00;62.40
14049;DHT22;7099;53.922;10.728;2023-02-08T21:02:16;0.00;62.40
14049;DHT22;7099;53.922;10.728;2023-02-08T21:06:28;0.00;62.70
14049;DHT22;7099;53.922;10.728;2023-02-08T21:10:36;0.00;62.70
14049;DHT22;7099;53.922;10.728;2023-02-08T21:14:42;-0.10;62.60
14049;DHT22;7099;53.922;10.728;2023-02-08T21:18:48;-0.10;62.70
14049;DHT22;7099;53.922;10.728;2023-02-08T21:22:54;-0.10;62.90
14049;DHT22;7099;53.922;10.728;2023-02-08T21:27:00;-0.20;62.70
14049;DHT22;7099;53.922;10.728;2023-02-08T21:31:08;-0.20;62.90
14049;DHT22;7099;53.922;10.728;2023-02-08T21:35:16;-0.20;63.00
14049;DHT22;7099;53.922;10.728;2023-02-08T21:39:22;-0.30;62.90
14049;DHT22;7099;53.922;10.728;2023-02-08T21:43:27;-0.30;62.90
14049;DHT22;7099;53.922;10.728;2023-02-08T21:47:33;-0.30;63.20
14049;DHT22;7099;53.922;10.728;2023-02-08T21:51:39;-0.30;63.10
14049;DHT22;7099;53.922;10.728;2023-02-08T21:56:03;-0.40;63.10
14049;DHT22;7099;53.922;10.728;2023-02-08T22:00:09;-0.40;63.20
14049;DHT22;7099;53.922;10.728;2023-02-08T22:04:16;-0.40;63.20
14049;DHT22;7099;53.922;10.728;2023-02-08T22:08:21;-0.40;63.20
14049;DHT22;7099;53.922;10.728;2023-02-08T22:12:29;-0.50;63.20
14049;DHT22;7099;53.922;10.728;2023-02-08T22:16:35;-0.50;63.20
14049;DHT22;7099;53.922;10.728;2023-02-08T22:20:41;-0.50;63.30
14049;DHT22;7099;53.922;10.728;2023-02-08T22:24:47;-0.60;63.30
14049;DHT22;7099;53.922;10.728;2023-02-08T22:28:53;-0.60;63.50
14049;DHT22;7099;53.922;10.728;2023-02-08T22:32:59;-0.60;63.60
14049;DHT22;7099;53.922;10.728;2023-02-08T22:37:04;-0.70;63.60
14049;DHT22;7099;53.922;10.728;2023-02-08T22:41:11;-0.70;63.80
14049;DHT22;7099;53.922;10.728;2023-02-08T22:45:19;-0.80;63.90
14049;DHT22;7099;53.922;10.728;2023-02-08T22:49:24;-0.80;63.80
14049;DHT22;7099;53.922;10.728;2023-02-08T22:53:31;-0.80;63.90
14049;DHT22;7099;53.922;10.728;2023-02-08T22:57:36;-0.80;64.20
14049;DHT22;7099;53.922;10.728;2023-02-08T23:01:42;-0.90;64.20
14049;DHT22;7099;53.922;10.728;2023-02-08T23:05:49;-0.90;64.20
14049;DHT22;7099;53.922;10.728;2023-02-08T23:09:55;-0.90;64.50
14049;DHT22;7099;53.922;10.728;2023-02-08T23:14:00;-1.00;64.50
14049;DHT22;7099;53.922;10.728;2023-02-08T23:18:07;-1.00;64.50
14049;DHT22;7099;53.922;10.728;2023-02-08T23:22:13;-1.00;64.60
14049;DHT22;7099;53.922;10.728;2023-02-08T23:26:19;-1.10;64.60
14049;DHT22;7099;53.922;10.728;2023-02-08T23:30:25;-1.10;64.60
14049;DHT22;7099;53.922;10.728;2023-02-08T23:34:33;-1.10;65.00
14049;DHT22;7099;53.922;10.728;2023-02-08T23:38:39;-1.10;65.10
14049;DHT22;7099;53.922;10.728;2023-02-08T23:42:45;-1.10;64.90
14049;DHT22;7099;53.922;10.728;2023-02-08T23:46:51;-1.20;65.00
14049;DHT22;7099;53.922;10.728;2023-02-08T23:50:58;-1.30;65.20
14049;DHT22;7099;53.922;10.728;2023-02-08T23:55:05;-1.30;66.00
14049;DHT22;7099;53.922;10.728;2023-02-08T23:59:11;-1.30;65.60
